Time;durP1;ratioP1;P1;durP2;ratioP2;P2;SDS_P1;SDS_P2;PMS_P1;PMS_P2;Temp;Humidity;BMP_temperature;BMP_pressure;BME280_temperature;BME280_humidity;BME280_pressure;Samples;Min_cycle;Max_cycle;Signal;HPM_P1;HPM_P2
2023/12/25 00:00:51;;;;;;;16.60;2.90;;;11.60;99.90;;;;;;5070202;27;20490;-78
2023/12/25 00:03:16;;;;;;;15.20;2.40;;;11.50;99.90;;;;;;5108845;27;20063;-78
2023/12/25 00:05:42;;;;;;;13.13;2.30;;;11.60;99.90;;;;;;5126276;27;20040;-78
2023/12/25 00:08:08;;;;;;;13.38;2.25;;;11.60;99.90;;;;;;5127926;27;20377;-77
2023/12/25 00:10:33;;;;;;;11.20;2.30;;;11.50;99.90;;;;;;5095363;28;20472;-78
2023/12/25 00:12:59;;;;;;;16.88;2.55;;;11.60;99.90;;;;;;5112765;28;20043;-78
2023/12/25 00:15:25;;;;;;;13.63;2.38;;;11.60;99.90;;;;;;5109703;27;20046;-79
2023/12/25 00:17:50;;;;;;;10.93;2.10;;;11.60;99.90;;;;;;5111190;28;20575;-78
2023/12/25 00:20:16;;;;;;;14.70;2.75;;;11.60;99.90;;;;;;5111019;28;20110;-78
2023/12/25 00:22:41;;;;;;;13.20;2.55;;;11.60;99.90;;;;;;5112489;28;20126;-78
2023/12/25 00:25:07;;;;;;;13.43;2.97;;;11.70;99.90;;;;;;5094947;28;20059;-79
2023/12/25 00:27:33;;;;;;;9.63;2.05;;;11.70;99.90;;;;;;5127411;27;20506;-77
2023/12/25 00:29:58;;;;;;;14.10;2.35;;;11.70;99.90;;;;;;5144753;27;20095;-77
2023/12/25 00:32:24;;;;;;;8.70;1.77;;;11.70;99.90;;;;;;5112662;28;20369;-77
2023/12/25 00:34:49;;;;;;;11.00;2.10;;;11.70;99.90;;;;;;5111395;28;20078;-78
2023/12/25 00:37:16;;;;;;;12.15;2.00;;;11.60;99.90;;;;;;5129514;28;20168;-77
2023/12/25 00:39:42;;;;;;;13.30;2.42;;;11.60;99.90;;;;;;5094333;28;20032;-77
2023/12/25 00:42:07;;;;;;;8.25;1.90;;;11.60;99.90;;;;;;5125952;28;20103;-77
2023/12/25 00:44:33;;;;;;;16.35;2.40;;;11.70;99.90;;;;;;5126667;27;20048;-78
2023/12/25 00:46:58;;;;;;;13.10;2.22;;;11.70;99.90;;;;;;5124785;27;20036;-78
2023/12/25 00:49:24;;;;;;;12.55;2.30;;;11.70;99.90;;;;;;5129163;28;20484;-78
2023/12/25 00:51:50;;;;;;;11.30;2.45;;;11.70;99.90;;;;;;5095224;28;20055;-78
2023/12/25 00:54:15;;;;;;;13.45;2.13;;;11.70;99.90;;;;;;5097051;28;20035;-77
2023/12/25 00:56:41;;;;;;;10.52;1.60;;;11.60;99.90;;;;;;5132154;27;20165;-77
2023/12/25 00:59:06;;;;;;;6.75;1.60;;;11.70;99.90;;;;;;5097690;28;20415;-78
2023/12/25 01:01:32;;;;;;;14.05;1.83;;;11.60;99.90;;;;;;5115733;28;20044;-78
2023/12/25 01:03:58;;;;;;;12.23;2.40;;;11.60;99.90;;;;;;5098650;28;20042;-78
2023/12/25 01:06:23;;;;;;;8.30;1.52;;;11.60;99.90;;;;;;5133190;27;20445;-78
2023/12/25 01:08:49;;;;;;;8.73;1.60;;;11.60;99.90;;;;;;5130943;27;20036;-77
2023/12/25 01:11:15;;;;;;;12.68;2.00;;;11.60;99.90;;;;;;5116126;28;20035;-77
2023/12/25 01:13:41;;;;;;;6.10;1.50;;;11.50;99.90;;;;;;5098679;28;20031;-77
2023/12/25 01:16:06;;;;;;;11.90;2.03;;;11.50;99.90;;;;;;5132440;27;20035;-78
2023/12/25 01:18:32;;;;;;;9.27;1.48;;;11.50;99.90;;;;;;5115932;28;20036;-78
2023/12/25 01:20:57;;;;;;;9.82;1.50;;;11.50;99.90;;;;;;5132338;27;20036;-78
2023/12/25 01:23:23;;;;;;;8.65;1.52;;;11.50;99.90;;;;;;5097915;28;20073;-77
2023/12/25 01:25:49;;;;;;;9.93;1.75;;;11.40;99.90;;;;;;5098885;28;20123;-77
2023/12/25 01:28:14;;;;;;;9.52;1.73;;;11.40;99.90;;;;;;5150118;27;20042;-76
2023/12/25 01:30:40;;;;;;;8.50;1.48;;;11.40;99.90;;;;;;5131714;27;20050;-77
2023/12/25 01:33:05;;;;;;;9.30;1.83;;;11.30;99.90;;;;;;5148536;27;20448;-77
2023/12/25 01:35:32;;;;;;;10.80;1.65;;;11.30;99.90;;;;;;5114869;27;20076;-77
2023/12/25 01:37:57;;;;;;;8.75;1.90;;;11.20;99.90;;;;;;5150051;27;20044;-77
2023/12/25 01:40:23;;;;;;;9.73;1.65;;;11.20;99.90;;;;;;5114556;28;20039;-77
2023/12/25 01:42:48;;;;;;;12.13;2.25;;;11.20;99.90;;;;;;5115669;28;20051;-77
2023/12/25 01:45:14;;;;;;;10.57;1.90;;;11.20;99.90;;;;;;5097753;28;20043;-77
2023/12/25 01:47:40;;;;;;;9.85;1.70;;;11.10;99.90;;;;;;5149711;27;20047;-77
2023/12/25 01:50:06;;;;;;;17.83;3.08;;;11.00;99.90;;;;;;5148466;27;20038;-77
2023/12/25 01:52:32;;;;;;;11.93;1.60;;;11.10;99.90;;;;;;5098589;28;20391;-77
2023/12/25 01:54:59;;;;;;;11.32;2.20;;;11.00;99.90;;;;;;5094164;27;20032;-77
2023/12/25 01:57:32;;;;;;;10.50;1.90;;;11.10;99.90;;;;;;5114381;28;20138;-77
2023/12/25 01:59:58;;;;;;;11.32;2.00;;;11.10;99.90;;;;;;5097714;28;20048;-77
2023/12/25 02:02:23;;;;;;;10.70;2.05;;;11.20;99.90;;;;;;5112307;27;20051;-76
2023/12/25 02:04:49;;;;;;;8.45;1.85;;;11.10;99.90;;;;;;5097167;27;20035;-77
2023/12/25 02:07:15;;;;;;;7.40;1.63;;;11.10;99.90;;;;;;5131180;27;20036;-76
2023/12/25 02:09:46;;;;;;;9.18;2.00;;;11.10;99.90;;;;;;5097185;28;20035;-77
2023/12/25 02:12:12;;;;;;;11.88;2.00;;;11.00;99.90;;;;;;5113857;28;20035;-77
2023/12/25 02:14:38;;;;;;;11.65;1.90;;;10.90;99.90;;;;;;5097478;28;20058;-77
2023/12/25 02:17:04;;;;;;;10.73;2.13;;;10.90;99.90;;;;;;5112120;27;20492;-76
2023/12/25 02:19:38;;;;;;;10.85;2.33;;;10.90;99.90;;;;;;5115092;28;20051;-77
2023/12/25 02:22:07;;;;;;;6.35;1.30;;;10.90;99.90;;;;;;5112462;28;20058;-76
2023/12/25 02:24:36;;;;;;;7.82;1.63;;;10.90;99.90;;;;;;5113747;28;20122;-77
2023/12/25 02:27:02;;;;;;;11.57;2.17;;;11.00;99.90;;;;;;5131042;27;20071;-76
2023/12/25 02:29:28;;;;;;;11.30;1.80;;;11.00;99.90;;;;;;5146789;27;20459;-76
2023/12/25 02:31:53;;;;;;;10.25;1.98;;;11.00;99.90;;;;;;5112444;28;20388;-76
2023/12/25 02:34:19;;;;;;;8.98;1.50;;;11.00;99.90;;;;;;5097550;28;20420;-77
2023/12/25 02:36:45;;;;;;;7.95;1.60;;;11.10;99.90;;;;;;5095819;27;20071;-77
2023/12/25 02:39:10;;;;;;;8.20;1.98;;;11.10;99.90;;;;;;5114429;28;20041;-77
2023/12/25 02:41:36;;;;;;;7.90;1.65;;;11.20;99.90;;;;;;5096428;27;20039;-76
2023/12/25 02:44:02;;;;;;;11.07;1.63;;;11.10;99.90;;;;;;5111995;28;20114;-76
2023/12/25 02:46:28;;;;;;;8.52;1.63;;;11.00;99.90;;;;;;5130866;27;20384;-76
2023/12/25 02:48:53;;;;;;;9.43;1.80;;;11.10;99.90;;;;;;5129372;27;20035;-77
2023/12/25 02:51:19;;;;;;;8.68;1.45;;;11.00;99.90;;;;;;5147105;27;20035;-77
2023/12/25 02:53:45;;;;;;;11.38;1.75;;;11.00;99.90;;;;;;5129544;27;20459;-78
2023/12/25 02:56:10;;;;;;;9.57;1.33;;;11.00;99.90;;;;;;5128743;27;20035;-77
2023/12/25 02:58:36;;;;;;;9.23;1.67;;;11.00;99.90;;;;;;5113596;28;20131;-77
2023/12/25 03:01:02;;;;;;;9.85;1.65;;;11.00;99.90;;;;;;5096583;28;20172;-77
2023/12/25 03:03:27;;;;;;;10.38;1.60;;;11.00;99.90;;;;;;5087083;27;20043;-77
2023/12/25 03:05:53;;;;;;;8.32;1.48;;;11.10;99.90;;;;;;5095581;27;20039;-76
2023/12/25 03:08:18;;;;;;;7.25;1.50;;;11.10;99.90;;;;;;5111561;28;20146;-77
2023/12/25 03:10:44;;;;;;;8.68;1.80;;;11.10;99.90;;;;;;5096849;28;20044;-77
2023/12/25 03:13:09;;;;;;;6.25;1.25;;;11.00;99.90;;;;;;5094965;27;20039;-77
2023/12/25 03:15:35;;;;;;;8.52;1.30;;;11.00;99.90;;;;;;5112015;28;20053;-77
2023/12/25 03:18:01;;;;;;;8.00;1.50;;;11.00;99.90;;;;;;5095842;28;20035;-77
2023/12/25 03:20:26;;;;;;;7.43;1.23;;;10.90;99.90;;;;;;5112606;27;20039;-77
2023/12/25 03:22:52;;;;;;;8.60;1.35;;;11.00;99.90;;;;;;5112393;28;20075;-77
2023/12/25 03:25:18;;;;;;;7.97;1.45;;;11.00;99.90;;;;;;5127375;27;20035;-78
2023/12/25 03:27:43;;;;;;;8.80;1.45;;;11.00;99.90;;;;;;5129806;27;20036;-77
2023/12/25 03:30:09;;;;;;;9.02;1.67;;;11.00;99.90;;;;;;5145527;27;20032;-77
2023/12/25 03:32:35;;;;;;;7.40;1.20;;;11.00;99.90;;;;;;5113545;28;20032;-77
2023/12/25 03:35:00;;;;;;;7.53;1.55;;;11.00;99.90;;;;;;5127281;27;20115;-77
2023/12/25 03:37:26;;;;;;;9.27;1.50;;;11.00;99.90;;;;;;5095700;28;20040;-77
2023/12/25 03:39:52;;;;;;;6.80;1.27;;;11.00;99.90;;;;;;5130307;27;20039;-77
2023/12/25 03:42:18;;;;;;;9.07;1.67;;;11.00;99.90;;;;;;5127279;27;20032;-77
2023/12/25 03:44:44;;;;;;;11.25;1.40;;;11.00;99.90;;;;;;5111335;27;20381;-77
2023/12/25 03:47:11;;;;;;;4.97;1.13;;;11.00;99.90;;;;;;5145358;27;20051;-77
2023/12/25 03:49:36;;;;;;;8.40;1.40;;;11.00;99.90;;;;;;5130154;27;20048;-77
2023/12/25 03:52:02;;;;;;;9.23;1.58;;;10.90;99.90;;;;;;5129173;27;20036;-77
2023/12/25 03:54:28;;;;;;;8.88;1.52;;;11.00;99.90;;;;;;5095629;28;20028;-77
2023/12/25 03:56:54;;;;;;;4.93;1.50;;;10.90;99.90;;;;;;5127704;27;20038;-76
2023/12/25 03:59:20;;;;;;;4.57;1.17;;;11.00;99.90;;;;;;5095568;28;20060;-76
2023/12/25 04:01:45;;;;;;;13.05;1.67;;;10.90;99.90;;;;;;5145550;27;20144;-77
2023/12/25 04:04:11;;;;;;;15.05;1.63;;;10.90;99.90;;;;;;5110842;27;20044;-76
2023/12/25 04:06:37;;;;;;;9.05;1.35;;;10.90;99.90;;;;;;5095726;28;20422;-77
2023/12/25 04:09:04;;;;;;;9.13;1.50;;;10.90;99.90;;;;;;5094294;28;20118;-76
2023/12/25 04:11:30;;;;;;;10.63;1.50;;;10.90;99.90;;;;;;5129811;27;20039;-77
2023/12/25 04:13:55;;;;;;;9.38;1.35;;;10.90;99.90;;;;;;5145457;27;20048;-76
2023/12/25 04:16:23;;;;;;;10.60;1.60;;;10.90;99.90;;;;;;5129756;27;20036;-77
2023/12/25 04:18:49;;;;;;;7.22;1.20;;;10.90;99.90;;;;;;5108273;28;20140;-76
2023/12/25 04:21:25;;;;;;;6.97;1.30;;;10.90;99.90;;;;;;5129186;27;20081;-77
2023/12/25 04:23:52;;;;;;;9.90;1.60;;;11.00;99.90;;;;;;5111493;28;20387;-77
2023/12/25 04:26:19;;;;;;;7.60;1.42;;;10.90;99.90;;;;;;5095304;28;20027;-76
2023/12/25 04:28:45;;;;;;;8.70;1.30;;;11.00;99.90;;;;;;5107752;28;20040;-76
2023/12/25 04:31:11;;;;;;;7.03;1.45;;;10.90;99.90;;;;;;5128245;27;20387;-76
2023/12/25 04:33:37;;;;;;;6.32;1.30;;;11.00;99.90;;;;;;5094917;28;20035;-77
2023/12/25 04:36:03;;;;;;;13.23;2.08;;;10.90;99.90;;;;;;5111613;28;20039;-77
2023/12/25 04:38:28;;;;;;;7.20;1.30;;;10.90;99.90;;;;;;5093857;28;20578;-76
2023/12/25 04:40:54;;;;;;;10.80;2.15;;;11.00;99.90;;;;;;5128142;28;20039;-77
2023/12/25 04:43:20;;;;;;;7.82;1.30;;;10.90;99.90;;;;;;5129458;28;20447;-78
2023/12/25 04:45:45;;;;;;;9.82;1.50;;;10.80;99.90;;;;;;5128384;27;20036;-77
2023/12/25 04:48:11;;;;;;;10.35;1.50;;;10.90;99.90;;;;;;5111169;28;20042;-76
2023/12/25 04:50:38;;;;;;;8.20;1.73;;;10.90;99.90;;;;;;5141822;27;20035;-77
2023/12/25 04:53:04;;;;;;;14.60;1.80;;;10.90;99.90;;;;;;5112110;28;20515;-77
2023/12/25 04:55:31;;;;;;;8.27;1.70;;;11.00;99.90;;;;;;5112212;28;20040;-77
2023/12/25 04:57:57;;;;;;;13.52;1.98;;;10.90;99.90;;;;;;5110743;28;20062;-76
2023/12/25 05:00:23;;;;;;;9.85;1.60;;;10.90;99.90;;;;;;5143550;27;20398;-76
2023/12/25 05:02:49;;;;;;;10.20;1.45;;;10.90;99.90;;;;;;5112381;28;20086;-76
2023/12/25 05:05:15;;;;;;;11.07;1.50;;;10.90;99.90;;;;;;5094605;28;20110;-76
2023/12/25 05:07:41;;;;;;;14.15;1.65;;;10.90;99.90;;;;;;5111949;28;20047;-77
2023/12/25 05:10:07;;;;;;;9.57;1.80;;;10.80;99.90;;;;;;5109002;28;20042;-77
2023/12/25 05:12:32;;;;;;;11.25;1.77;;;10.80;99.90;;;;;;5110907;28;20339;-76
2023/12/25 05:14:58;;;;;;;14.45;1.98;;;10.90;99.90;;;;;;5111504;28;20496;-77
2023/12/25 05:17:24;;;;;;;10.43;1.58;;;10.80;99.90;;;;;;5094009;28;20047;-77
2023/12/25 05:19:50;;;;;;;11.15;1.83;;;10.90;99.90;;;;;;5128567;27;20044;-76
2023/12/25 05:22:16;;;;;;;11.52;2.03;;;10.90;99.90;;;;;;5126994;28;20066;-76
2023/12/25 05:24:42;;;;;;;9.93;1.80;;;10.90;99.90;;;;;;5109785;28;20509;-76
2023/12/25 05:27:08;;;;;;;13.77;2.47;;;10.90;99.90;;;;;;5111964;28;20040;-76
2023/12/25 05:29:34;;;;;;;14.55;2.15;;;10.80;99.90;;;;;;5093021;28;20070;-76
2023/12/25 05:32:00;;;;;;;15.50;1.95;;;10.80;99.90;;;;;;5143938;27;20072;-77
2023/12/25 05:34:27;;;;;;;12.57;2.30;;;10.80;99.90;;;;;;5095086;28;20031;-76
2023/12/25 05:36:53;;;;;;;11.32;1.90;;;10.90;99.90;;;;;;5111074;28;20051;-77
2023/12/25 05:39:19;;;;;;;16.15;1.85;;;10.80;99.90;;;;;;5122650;27;20027;-76
2023/12/25 05:41:45;;;;;;;10.63;1.95;;;10.80;99.90;;;;;;5170796;27;20080;-77
2023/12/25 05:44:10;;;;;;;13.75;2.03;;;10.80;99.90;;;;;;5147076;27;20099;-76
2023/12/25 05:46:36;;;;;;;12.77;1.95;;;10.80;99.90;;;;;;5097574;28;20123;-76
2023/12/25 05:49:03;;;;;;;13.50;2.03;;;10.80;99.90;;;;;;5096962;28;20118;-77
2023/12/25 05:51:29;;;;;;;11.77;1.95;;;10.80;99.90;;;;;;5132147;27;20396;-76
2023/12/25 05:53:54;;;;;;;10.18;1.83;;;10.80;99.90;;;;;;5114833;28;20047;-76
2023/12/25 05:56:20;;;;;;;14.98;1.80;;;10.80;99.90;;;;;;5097396;27;20051;-76
2023/12/25 05:58:45;;;;;;;10.98;1.58;;;10.80;99.90;;;;;;5128146;27;20051;-77
2023/12/25 06:01:13;;;;;;;11.95;1.65;;;10.80;99.90;;;;;;5095846;28;20048;-77
2023/12/25 06:03:41;;;;;;;7.68;1.70;;;10.80;99.90;;;;;;5097135;28;20491;-76
2023/12/25 06:06:07;;;;;;;10.23;1.80;;;10.80;99.90;;;;;;5115327;28;20035;-76
2023/12/25 06:08:34;;;;;;;11.20;1.73;;;10.80;99.90;;;;;;5094658;27;20193;-77
2023/12/25 06:11:00;;;;;;;12.05;2.45;;;10.70;99.90;;;;;;5097967;28;20036;-77
2023/12/25 06:13:25;;;;;;;8.75;1.50;;;10.70;99.90;;;;;;5096898;28;20043;-76
2023/12/25 06:15:51;;;;;;;9.27;1.40;;;10.70;99.90;;;;;;5114560;28;20507;-76
2023/12/25 06:18:17;;;;;;;7.90;1.50;;;10.80;99.90;;;;;;5097132;28;20042;-76
2023/12/25 06:20:43;;;;;;;11.00;2.70;;;10.70;99.90;;;;;;5095369;28;20457;-76
2023/12/25 06:23:09;;;;;;;11.68;2.10;;;10.70;99.90;;;;;;5149188;27;20127;-76
2023/12/25 06:25:35;;;;;;;7.65;1.50;;;10.70;99.90;;;;;;5146457;27;20043;-76
2023/12/25 06:28:01;;;;;;;10.43;1.67;;;10.70;99.90;;;;;;5095599;28;20051;-76
2023/12/25 06:30:26;;;;;;;12.93;2.15;;;10.60;99.90;;;;;;5130461;27;20494;-76
2023/12/25 06:32:53;;;;;;;13.13;2.20;;;10.60;99.90;;;;;;5131675;27;20122;-77
2023/12/25 06:35:18;;;;;;;10.25;3.13;;;10.50;99.90;;;;;;5146653;27;20031;-77
2023/12/25 06:37:44;;;;;;;12.93;2.03;;;10.50;99.90;;;;;;5114420;28;20089;-76
2023/12/25 06:40:10;;;;;;;10.98;1.70;;;10.50;99.90;;;;;;5130221;27;20043;-76
2023/12/25 06:42:36;;;;;;;8.68;1.48;;;10.50;99.90;;;;;;5146768;27;20039;-77
2023/12/25 06:45:01;;;;;;;9.50;1.88;;;10.50;99.90;;;;;;5130589;27;20040;-76
2023/12/25 06:47:27;;;;;;;13.23;1.85;;;10.40;99.90;;;;;;5129408;27;20031;-77
2023/12/25 06:49:53;;;;;;;11.30;1.75;;;10.40;99.90;;;;;;5129947;27;20510;-76
2023/12/25 06:52:19;;;;;;;12.75;1.90;;;10.50;99.90;;;;;;5145732;27;20518;-77
2023/12/25 06:54:45;;;;;;;14.13;2.10;;;10.40;99.90;;;;;;5096615;28;20046;-77
2023/12/25 06:57:13;;;;;;;11.20;1.92;;;10.40;99.90;;;;;;5130454;27;20449;-77
2023/12/25 06:59:40;;;;;;;15.20;2.63;;;10.40;99.90;;;;;;5096755;28;20066;-77
2023/12/25 07:02:07;;;;;;;11.27;1.60;;;10.40;99.90;;;;;;5094925;28;20039;-77
2023/12/25 07:04:33;;;;;;;13.98;2.35;;;10.40;99.90;;;;;;5095488;28;20036;-76
2023/12/25 07:06:59;;;;;;;12.30;2.10;;;10.40;99.90;;;;;;5148318;27;20130;-76
2023/12/25 07:09:25;;;;;;;8.52;1.95;;;10.30;99.90;;;;;;5112974;28;20127;-76
2023/12/25 07:11:51;;;;;;;11.18;1.55;;;10.30;99.90;;;;;;5097113;28;20036;-76
2023/12/25 07:14:17;;;;;;;11.20;1.67;;;10.30;99.90;;;;;;5113678;27;20042;-76
2023/12/25 07:16:43;;;;;;;10.15;1.73;;;10.30;99.90;;;;;;5112518;28;20036;-76
2023/12/25 07:19:08;;;;;;;7.75;1.35;;;10.30;99.90;;;;;;5113667;28;20404;-76
2023/12/25 07:21:34;;;;;;;10.07;2.58;;;10.40;99.90;;;;;;5112709;28;20039;-76
2023/12/25 07:24:00;;;;;;;12.73;2.83;;;10.30;99.90;;;;;;5113821;27;20066;-77
2023/12/25 07:26:25;;;;;;;11.15;2.08;;;10.30;99.90;;;;;;5147780;27;20518;-76
2023/12/25 07:28:51;;;;;;;13.85;2.28;;;10.20;99.90;;;;;;5112286;28;20035;-76
2023/12/25 07:31:17;;;;;;;11.73;1.75;;;10.20;99.90;;;;;;5129808;27;20039;-76
2023/12/25 07:33:43;;;;;;;13.60;1.83;;;10.10;99.90;;;;;;5111428;27;20117;-76
2023/12/25 07:36:09;;;;;;;8.02;1.98;;;10.10;99.90;;;;;;5131692;27;20490;-76
2023/12/25 07:38:35;;;;;;;12.57;2.30;;;10.10;99.90;;;;;;5112433;28;20488;-77
2023/12/25 07:41:01;;;;;;;9.00;1.88;;;10.00;99.90;;;;;;5095529;28;20039;-76
2023/12/25 07:43:27;;;;;;;9.60;1.65;;;10.00;99.90;;;;;;5097362;28;20046;-76
2023/12/25 07:45:53;;;;;;;11.43;2.15;;;10.00;99.90;;;;;;5128046;27;20035;-76
2023/12/25 07:48:19;;;;;;;9.45;1.63;;;10.00;99.90;;;;;;5146210;27;20048;-76
2023/12/25 07:50:45;;;;;;;8.40;1.48;;;10.00;99.90;;;;;;5129338;27;20121;-76
2023/12/25 07:53:11;;;;;;;11.73;1.60;;;10.00;99.90;;;;;;5103423;28;20040;-76
2023/12/25 07:55:38;;;;;;;12.77;1.58;;;10.00;99.90;;;;;;5104500;27;20031;-76
2023/12/25 07:58:04;;;;;;;13.98;1.70;;;10.00;99.90;;;;;;5090264;27;20051;-76
2023/12/25 08:00:30;;;;;;;14.00;2.10;;;10.00;99.90;;;;;;5113784;27;20435;-76
2023/12/25 08:02:55;;;;;;;11.80;1.70;;;10.00;99.90;;;;;;5120245;27;20119;-76
2023/12/25 08:05:21;;;;;;;7.40;2.33;;;10.10;99.90;;;;;;5117206;27;20039;-76
2023/12/25 08:07:47;;;;;;;10.95;2.03;;;10.10;99.90;;;;;;5145684;27;20039;-76
2023/12/25 08:10:13;;;;;;;10.85;2.08;;;10.00;99.90;;;;;;5107978;28;20036;-76
2023/12/25 08:12:43;;;;;;;15.40;2.15;;;10.00;99.90;;;;;;5106373;28;20111;-76
2023/12/25 08:15:11;;;;;;;8.05;1.40;;;10.00;99.90;;;;;;5129769;27;20515;-76
2023/12/25 08:17:36;;;;;;;14.57;2.20;;;10.00;99.90;;;;;;5128593;27;20058;-76
2023/12/25 08:20:03;;;;;;;17.48;2.10;;;9.90;99.90;;;;;;5129089;27;20036;-76
2023/12/25 08:22:28;;;;;;;10.38;1.75;;;10.00;99.90;;;;;;5078458;28;20047;-77
2023/12/25 08:24:54;;;;;;;14.38;2.35;;;9.90;99.90;;;;;;5102886;28;20036;-76
2023/12/25 08:27:20;;;;;;;12.15;2.20;;;10.00;99.90;;;;;;5109758;27;20058;-77
2023/12/25 08:29:45;;;;;;;8.95;2.17;;;10.00;99.90;;;;;;5083886;27;20369;-76
2023/12/25 08:32:13;;;;;;;12.48;1.92;;;10.00;99.90;;;;;;5119336;27;20047;-76
2023/12/25 08:34:41;;;;;;;6.82;1.65;;;9.90;99.90;;;;;;5114527;27;20714;-77
2023/12/25 08:37:07;;;;;;;14.32;1.75;;;9.90;99.90;;;;;;5117114;27;20496;-76
2023/12/25 08:39:33;;;;;;;13.43;1.95;;;10.00;99.90;;;;;;5116862;27;20040;-76
2023/12/25 08:42:01;;;;;;;13.32;2.10;;;9.90;99.90;;;;;;5080759;28;20043;-76
2023/12/25 08:44:32;;;;;;;11.63;2.35;;;10.00;99.90;;;;;;5087414;28;20047;-76
2023/12/25 08:46:58;;;;;;;15.05;2.10;;;10.00;99.90;;;;;;5084012;28;20044;-76
2023/12/25 08:49:24;;;;;;;11.85;1.98;;;9.90;99.90;;;;;;5079818;28;20401;-76
2023/12/25 08:51:49;;;;;;;13.93;2.35;;;9.90;99.90;;;;;;5081689;28;20142;-76
2023/12/25 08:54:15;;;;;;;15.38;2.17;;;9.90;99.90;;;;;;5114700;27;20046;-76
2023/12/25 08:56:41;;;;;;;16.38;2.42;;;9.90;99.90;;;;;;5110175;27;21513;-76
2023/12/25 08:59:07;;;;;;;11.30;2.17;;;9.80;99.90;;;;;;5114033;27;20083;-76
2023/12/25 09:01:33;;;;;;;10.05;1.90;;;9.90;99.90;;;;;;5102751;27;20036;-76
2023/12/25 09:03:58;;;;;;;12.90;2.00;;;9.80;99.90;;;;;;5096704;28;20035;-76
2023/12/25 09:06:28;;;;;;;14.02;2.30;;;9.90;99.90;;;;;;5119205;27;20051;-76
2023/12/25 09:08:55;;;;;;;9.98;1.95;;;9.90;99.90;;;;;;5111533;28;20048;-76
2023/12/25 09:11:21;;;;;;;13.45;2.10;;;9.90;99.90;;;;;;5140766;27;20036;-76
2023/12/25 09:13:46;;;;;;;10.75;1.98;;;9.80;99.90;;;;;;5111612;28;20192;-76
2023/12/25 09:16:12;;;;;;;13.77;1.95;;;9.90;99.90;;;;;;5132012;27;20035;-76
2023/12/25 09:18:38;;;;;;;8.60;1.88;;;9.80;99.90;;;;;;5092229;27;20126;-76
2023/12/25 09:21:03;;;;;;;10.68;2.05;;;9.80;99.90;;;;;;5115400;28;20049;-76
2023/12/25 09:23:29;;;;;;;10.43;1.80;;;9.80;99.90;;;;;;5111299;28;20047;-76
2023/12/25 09:25:55;;;;;;;14.00;2.00;;;9.70;99.90;;;;;;5115306;28;20050;-76
2023/12/25 09:28:22;;;;;;;14.93;3.28;;;9.70;99.90;;;;;;5111089;28;20089;-76
2023/12/25 09:30:47;;;;;;;13.32;2.08;;;9.70;99.90;;;;;;5148545;27;20032;-76
2023/12/25 09:33:13;;;;;;;10.85;2.08;;;9.70;99.90;;;;;;5111536;28;20032;-76
2023/12/25 09:35:39;;;;;;;14.38;2.35;;;9.70;99.90;;;;;;5106323;27;20043;-76
2023/12/25 09:38:04;;;;;;;10.05;2.47;;;9.80;99.90;;;;;;5099348;28;20104;-76
2023/12/25 09:40:31;;;;;;;9.93;1.95;;;9.70;99.90;;;;;;5148858;27;20043;-76
2023/12/25 09:42:58;;;;;;;11.80;1.70;;;9.70;99.90;;;;;;5097026;28;20043;-76
2023/12/25 09:45:26;;;;;;;9.88;1.80;;;9.80;99.90;;;;;;5149746;27;20044;-76
2023/12/25 09:47:52;;;;;;;12.20;2.00;;;9.80;99.90;;;;;;5095705;28;20479;-76
2023/12/25 09:50:21;;;;;;;12.13;2.50;;;9.70;99.90;;;;;;5113770;28;20027;-76
2023/12/25 09:52:47;;;;;;;9.90;2.00;;;9.70;99.90;;;;;;5110191;27;20039;-76
2023/12/25 09:55:13;;;;;;;13.85;2.50;;;9.70;99.90;;;;;;5098306;28;20043;-76
2023/12/25 09:57:40;;;;;;;17.17;2.70;;;9.80;99.90;;;;;;5113461;28;20382;-76
2023/12/25 10:00:08;;;;;;;14.07;2.10;;;9.80;99.90;;;;;;5113021;28;20101;-76
2023/12/25 10:02:37;;;;;;;13.60;2.10;;;9.80;99.90;;;;;;5111861;28;20070;-75
2023/12/25 10:05:05;;;;;;;11.10;2.17;;;9.90;99.90;;;;;;5131886;27;20047;-75
2023/12/25 10:07:30;;;;;;;13.60;2.10;;;9.90;99.90;;;;;;5147231;27;20492;-76
2023/12/25 10:09:57;;;;;;;17.33;2.33;;;9.90;99.90;;;;;;5103436;28;20085;-76
2023/12/25 10:12:24;;;;;;;17.05;2.10;;;9.90;99.90;;;;;;5110709;28;20559;-76
2023/12/25 10:14:50;;;;;;;13.05;1.77;;;9.90;99.90;;;;;;5121547;27;20036;-75
2023/12/25 10:17:16;;;;;;;12.63;2.03;;;9.90;99.90;;;;;;5108417;28;20383;-76
2023/12/25 10:19:55;;;;;;;12.50;1.90;;;9.80;99.90;;;;;;5112225;28;20040;-75
2023/12/25 10:22:35;;;;;;;11.50;1.90;;;9.90;99.90;;;;;;5126625;27;20082;-75
2023/12/25 10:25:06;;;;;;;11.52;2.10;;;9.90;99.90;;;;;;5098927;28;20047;-76
2023/12/25 10:27:33;;;;;;;7.83;1.63;;;9.90;99.90;;;;;;5125013;27;20085;-75
2023/12/25 10:30:00;;;;;;;18.05;2.63;;;9.90;99.90;;;;;;5097254;28;20118;-76
2023/12/25 10:32:26;;;;;;;14.45;2.40;;;10.00;99.90;;;;;;5130213;27;20035;-76
2023/12/25 10:35:08;;;;;;;12.00;2.00;;;10.00;99.90;;;;;;5114558;28;20453;-79
2023/12/25 10:37:36;;;;;;;13.77;2.28;;;10.00;99.90;;;;;;5092117;28;20088;-76
2023/12/25 10:40:01;;;;;;;10.68;2.30;;;9.90;99.90;;;;;;5098646;27;20707;-76
2023/12/25 10:42:27;;;;;;;13.43;2.60;;;9.90;99.90;;;;;;5090853;28;21202;-76
2023/12/25 10:44:55;;;;;;;13.50;2.40;;;9.90;99.90;;;;;;5108238;28;20050;-76
2023/12/25 10:47:21;;;;;;;16.58;2.67;;;9.90;99.90;;;;;;5131334;27;20044;-76
2023/12/25 10:49:47;;;;;;;14.18;2.50;;;9.90;99.90;;;;;;5120232;27;20100;-76
2023/12/25 10:52:13;;;;;;;15.15;2.03;;;9.90;99.90;;;;;;5129205;27;20043;-76
2023/12/25 10:54:40;;;;;;;15.30;2.13;;;9.90;99.90;;;;;;5128414;27;20035;-76
2023/12/25 10:57:08;;;;;;;14.18;2.50;;;9.90;99.90;;;;;;5095588;28;20495;-76
2023/12/25 10:59:38;;;;;;;13.15;2.75;;;10.00;99.90;;;;;;5124979;27;20526;-76
2023/12/25 11:02:09;;;;;;;12.70;2.28;;;10.10;99.90;;;;;;5109092;28;20051;-76
2023/12/25 11:04:35;;;;;;;12.80;1.83;;;10.00;99.90;;;;;;5141668;27;20036;-76
2023/12/25 11:07:04;;;;;;;16.50;2.78;;;10.00;99.90;;;;;;5109238;28;20040;-76
2023/12/25 11:09:30;;;;;;;15.65;2.28;;;10.00;99.90;;;;;;5107463;28;20042;-76
2023/12/25 11:11:56;;;;;;;16.58;2.63;;;10.00;99.90;;;;;;5085793;28;20040;-76
2023/12/25 11:14:22;;;;;;;11.02;1.95;;;9.90;99.90;;;;;;5099878;28;20032;-76
2023/12/25 11:16:48;;;;;;;15.27;2.30;;;10.00;99.90;;;;;;5144960;27;20450;-76
2023/12/25 11:19:13;;;;;;;12.20;2.47;;;10.00;99.90;;;;;;5115460;27;20677;-76
2023/12/25 11:21:41;;;;;;;10.55;1.90;;;10.00;99.90;;;;;;5129421;27;20431;-76
2023/12/25 11:24:07;;;;;;;16.92;2.80;;;9.90;99.90;;;;;;5109744;28;21087;-76
2023/12/25 11:26:33;;;;;;;13.52;2.33;;;10.00;99.90;;;;;;5109600;28;20035;-76
2023/12/25 11:29:07;;;;;;;14.60;2.13;;;9.90;99.90;;;;;;5127619;27;20042;-76
2023/12/25 11:31:46;;;;;;;12.07;2.17;;;10.00;99.90;;;;;;5110576;28;20484;-76
2023/12/25 11:34:23;;;;;;;13.10;1.88;;;9.90;99.90;;;;;;5097403;28;20154;-76
2023/12/25 11:36:52;;;;;;;13.27;2.10;;;10.00;99.90;;;;;;5143107;27;20130;-76
2023/12/25 11:39:18;;;;;;;10.73;2.47;;;10.00;99.90;;;;;;5093843;28;20044;-75
2023/12/25 11:41:48;;;;;;;12.68;1.98;;;10.00;99.90;;;;;;5137063;27;20035;-76
2023/12/25 11:44:40;;;;;;;13.40;2.17;;;10.00;99.90;;;;;;5115148;27;20039;-76
2023/12/25 11:47:06;;;;;;;11.73;2.10;;;10.10;99.90;;;;;;5130412;27;20456;-76
2023/12/25 11:49:33;;;;;;;13.18;1.90;;;10.10;99.90;;;;;;5122690;27;20122;-76
2023/12/25 11:51:59;;;;;;;10.45;2.00;;;10.10;99.90;;;;;;5091917;28;20040;-76
2023/12/25 11:54:29;;;;;;;13.35;2.58;;;10.10;99.90;;;;;;5124472;27;20032;-76
2023/12/25 11:57:15;;;;;;;12.73;2.88;;;10.00;99.90;;;;;;5130410;27;20036;-76
2023/12/25 11:59:41;;;;;;;12.38;2.08;;;10.10;99.90;;;;;;5102088;28;20101;-76
2023/12/25 12:02:08;;;;;;;10.68;2.38;;;10.20;99.90;;;;;;5093495;28;20040;-76
2023/12/25 12:04:34;;;;;;;15.68;2.38;;;10.20;99.90;;;;;;5125829;27;20036;-76
2023/12/25 12:06:59;;;;;;;14.55;2.13;;;10.20;99.90;;;;;;5141041;27;20051;-76
2023/12/25 12:09:25;;;;;;;10.30;2.28;;;10.10;99.90;;;;;;5085091;28;20040;-76
2023/12/25 12:11:51;;;;;;;14.05;2.50;;;10.10;99.90;;;;;;5134462;27;20047;-76
2023/12/25 12:14:16;;;;;;;14.48;2.00;;;10.10;99.90;;;;;;5109572;27;20024;-77
2023/12/25 12:16:42;;;;;;;11.73;2.80;;;10.10;99.90;;;;;;5099856;28;20043;-76
2023/12/25 12:19:12;;;;;;;10.63;2.05;;;10.00;99.90;;;;;;5118646;27;20508;-76
2023/12/25 12:21:39;;;;;;;14.45;2.67;;;10.10;99.90;;;;;;5098514;27;20494;-76
2023/12/25 12:24:04;;;;;;;11.85;2.78;;;10.10;99.90;;;;;;5115826;27;20443;-76
2023/12/25 12:26:31;;;;;;;11.85;2.30;;;10.20;99.90;;;;;;5100459;28;20048;-76
2023/12/25 12:28:56;;;;;;;12.35;2.17;;;10.20;99.90;;;;;;5099854;28;20032;-76
2023/12/25 12:31:22;;;;;;;17.45;2.35;;;10.20;99.90;;;;;;5133974;27;20388;-76
2023/12/25 12:33:48;;;;;;;10.93;2.05;;;10.20;99.90;;;;;;5137192;27;20433;-76
2023/12/25 12:36:14;;;;;;;11.27;2.40;;;10.20;99.90;;;;;;5135335;27;20042;-76